< < Back
Terminal Aerodrome Forecast


Current Version              Previous Versions:   1  2  3  4  5  6  7  8  9  

Terminal Aerodrome Forecast

566
FTAK31 PAJN 242300
TAFAHN
TAF
PAHN 242336Z 2500/2524 30008KT P6SM -SHRA BKN025 OVC040
     FM250600 30007KT P6SM -SHRASN BKN025 OVC040
     FM251500 30007KT P6SM VCSH SCT025 OVC040
      AMD LTD TO CLD VIS AND WIND=



Latest METAR

183
SAUS70 KWBC 250000 RRA
MTRAHN
METAR KAHN 242351Z 00000KT 10SM CLR 18/11 A2985 RMK AO2 SLP107 T01780106
10250 20172 53019


USA.gov is the U.S. government's official web portal to all federal, state and local government web resources and services.